Time;durP1;ratioP1;P1;durP2;ratioP2;P2;SDS_P1;SDS_P2;PMS_P1;PMS_P2;Temp;Humidity;BMP_temperature;BMP_pressure;BME280_temperature;BME280_humidity;BME280_pressure;Samples;Min_cycle;Max_cycle;Signal;HPM_P1;HPM_P2
2022/11/09 00:01:39;;;;;;;2.37;2.23;;;16.30;99.90;;;;;;5035355;28;20248;-68
2022/11/09 00:04:05;;;;;;;2.17;2.07;;;16.30;99.90;;;;;;5048110;28;20519;-69
2022/11/09 00:06:32;;;;;;;3.23;2.97;;;16.20;99.90;;;;;;5032628;28;20193;-69
2022/11/09 00:09:00;;;;;;;2.70;2.60;;;16.20;99.90;;;;;;5039055;28;20490;-68
2022/11/09 00:11:25;;;;;;;2.50;2.40;;;16.20;99.90;;;;;;5052037;28;20447;-69
2022/11/09 00:13:51;;;;;;;2.60;2.50;;;16.10;99.90;;;;;;5052549;28;20807;-69
2022/11/09 00:16:18;;;;;;;2.50;2.40;;;16.10;99.90;;;;;;5051921;28;20622;-68
2022/11/09 00:18:47;;;;;;;2.37;2.27;;;16.10;99.90;;;;;;5052185;28;20181;-69
2022/11/09 00:21:18;;;;;;;2.80;2.70;;;16.10;99.90;;;;;;5046567;28;20463;-69
2022/11/09 00:23:44;;;;;;;2.77;2.60;;;16.10;99.90;;;;;;5032578;28;20821;-69
2022/11/09 00:26:12;;;;;;;2.27;2.17;;;16.10;99.90;;;;;;5032112;28;20511;-69
2022/11/09 00:28:38;;;;;;;2.77;2.67;;;16.10;99.90;;;;;;5035566;28;20423;-69
2022/11/09 00:31:07;;;;;;;3.10;2.90;;;16.10;99.90;;;;;;5052015;28;20424;-69
2022/11/09 00:33:33;;;;;;;2.50;2.40;;;16.10;99.90;;;;;;5052556;28;20400;-69
2022/11/09 00:36:06;;;;;;;3.07;2.87;;;16.20;99.90;;;;;;5052222;28;20420;-69
2022/11/09 00:38:35;;;;;;;2.77;2.60;;;16.20;99.90;;;;;;5046471;28;20789;-69
2022/11/09 00:41:02;;;;;;;2.77;2.67;;;16.20;99.90;;;;;;5052226;28;20432;-69
2022/11/09 00:43:28;;;;;;;2.90;2.70;;;16.20;99.90;;;;;;5051717;28;20442;-69
2022/11/09 00:45:54;;;;;;;2.70;2.50;;;16.20;99.90;;;;;;5052554;28;20414;-69
2022/11/09 00:48:20;;;;;;;2.50;2.40;;;16.20;99.90;;;;;;5051088;28;20214;-69
2022/11/09 00:50:50;;;;;;;3.80;2.50;;;16.20;99.90;;;;;;5051763;28;20212;-69
2022/11/09 00:53:15;;;;;;;2.53;2.33;;;16.20;99.90;;;;;;5051789;28;20408;-69
2022/11/09 00:55:41;;;;;;;2.70;2.60;;;16.10;99.90;;;;;;5034239;28;20926;-69
2022/11/09 00:58:07;;;;;;;2.80;2.60;;;16.20;99.90;;;;;;5051777;28;20224;-69
2022/11/09 01:00:32;;;;;;;3.87;2.90;;;16.10;99.90;;;;;;5051535;28;20186;-68
2022/11/09 01:02:58;;;;;;;2.70;2.60;;;16.10;99.90;;;;;;5051752;28;20185;-69
2022/11/09 01:05:24;;;;;;;2.93;2.73;;;16.00;99.90;;;;;;5045765;28;20197;-69
2022/11/09 01:07:49;;;;;;;3.00;2.80;;;16.00;99.90;;;;;;5032119;28;20221;-69
2022/11/09 01:10:15;;;;;;;2.63;2.53;;;16.00;99.90;;;;;;5046281;28;20197;-69
2022/11/09 01:12:41;;;;;;;4.23;2.80;;;16.10;99.90;;;;;;5049489;28;20572;-68
2022/11/09 01:15:07;;;;;;;3.90;2.87;;;15.90;99.90;;;;;;5020819;28;20197;-70
2022/11/09 01:17:33;;;;;;;2.57;2.47;;;16.00;99.90;;;;;;5053574;28;20276;-69
2022/11/09 01:19:58;;;;;;;3.90;3.47;;;16.10;99.90;;;;;;5048677;28;20441;-69
2022/11/09 01:22:24;;;;;;;3.10;3.00;;;16.00;99.90;;;;;;5053063;28;20636;-68
2022/11/09 01:24:50;;;;;;;3.37;3.10;;;16.00;99.90;;;;;;5054806;28;20625;-71
2022/11/09 01:27:15;;;;;;;8.73;2.97;;;16.00;99.90;;;;;;5050968;28;20178;-69
2022/11/09 01:29:41;;;;;;;3.73;3.43;;;16.00;99.90;;;;;;5037113;28;20344;-69
2022/11/09 01:32:07;;;;;;;3.30;3.20;;;16.00;99.90;;;;;;5017770;28;20225;-71
2022/11/09 01:34:32;;;;;;;3.47;3.27;;;16.00;99.90;;;;;;5049368;28;20185;-69
2022/11/09 01:36:58;;;;;;;3.23;3.03;;;16.00;99.90;;;;;;5055133;28;20185;-68
2022/11/09 01:39:24;;;;;;;2.83;2.73;;;16.00;99.90;;;;;;5035934;28;20660;-68
2022/11/09 01:41:49;;;;;;;3.23;3.03;;;16.00;99.90;;;;;;5052912;28;20540;-68
2022/11/09 01:44:18;;;;;;;3.50;3.30;;;15.90;99.90;;;;;;5054144;28;20208;-69
2022/11/09 01:47:00;;;;;;;3.43;3.23;;;16.00;99.90;;;;;;5029331;28;20549;-69
2022/11/09 01:49:41;;;;;;;3.20;3.00;;;16.00;99.90;;;;;;5052508;28;20960;-69
2022/11/09 01:52:14;;;;;;;3.03;2.73;;;16.00;99.90;;;;;;5054856;28;20443;-69
2022/11/09 01:54:44;;;;;;;3.10;2.90;;;15.90;99.90;;;;;;5054112;28;20431;-69
2022/11/09 01:57:16;;;;;;;2.97;2.77;;;15.90;99.90;;;;;;5018742;28;20448;-69
2022/11/09 01:59:47;;;;;;;2.87;2.67;;;15.90;99.90;;;;;;5051027;28;20800;-68
2022/11/09 02:02:13;;;;;;;2.80;2.70;;;15.90;99.90;;;;;;5052860;28;20778;-69
2022/11/09 02:05:02;;;;;;;2.60;2.50;;;15.80;99.90;;;;;;5054304;28;20443;-69
2022/11/09 02:07:28;;;;;;;2.93;2.53;;;15.80;99.90;;;;;;5023859;28;20467;-69
2022/11/09 02:10:09;;;;;;;2.90;2.80;;;15.80;99.90;;;;;;5045781;28;20479;-69
2022/11/09 02:12:35;;;;;;;2.80;2.70;;;15.80;99.90;;;;;;5051433;28;20447;-69
2022/11/09 02:15:04;;;;;;;2.87;2.73;;;15.80;99.90;;;;;;5037101;28;20597;-69
2022/11/09 02:17:30;;;;;;;2.90;2.80;;;15.80;99.90;;;;;;5054064;28;20415;-69
2022/11/09 02:19:57;;;;;;;2.53;2.43;;;15.80;99.90;;;;;;5053575;28;20967;-68
2022/11/09 02:22:23;;;;;;;3.03;2.70;;;15.70;99.90;;;;;;5052399;28;20204;-68
2022/11/09 02:24:49;;;;;;;5.90;2.77;;;15.90;99.90;;;;;;5035019;28;20498;-68
2022/11/09 02:27:16;;;;;;;2.77;2.57;;;15.90;99.90;;;;;;5033240;28;20444;-69
2022/11/09 02:29:44;;;;;;;2.70;2.50;;;15.90;99.90;;;;;;5025590;28;20532;-68
2022/11/09 02:32:18;;;;;;;2.80;2.60;;;15.90;99.90;;;;;;5054037;28;20767;-69
2022/11/09 02:34:44;;;;;;;3.30;3.00;;;15.90;99.90;;;;;;5053611;28;20430;-68
2022/11/09 02:37:10;;;;;;;3.00;2.80;;;15.90;99.90;;;;;;5054048;28;20442;-68
2022/11/09 02:39:37;;;;;;;2.63;2.43;;;15.90;99.90;;;;;;5005383;28;20196;-68
2022/11/09 02:42:09;;;;;;;2.50;2.40;;;15.90;99.90;;;;;;5046879;28;20431;-69
2022/11/09 02:44:39;;;;;;;3.13;2.50;;;15.80;99.90;;;;;;5052705;28;20436;-69
2022/11/09 02:47:05;;;;;;;2.80;2.60;;;15.80;99.90;;;;;;5053988;28;20877;-69
2022/11/09 02:49:30;;;;;;;2.80;2.60;;;15.90;99.90;;;;;;5051403;28;20857;-69
2022/11/09 02:51:56;;;;;;;2.60;2.50;;;15.90;99.90;;;;;;5035888;28;20250;-69
2022/11/09 02:54:22;;;;;;;2.97;2.67;;;15.90;99.90;;;;;;5046989;28;20704;-69
2022/11/09 02:56:47;;;;;;;2.33;2.23;;;15.90;99.90;;;;;;5045139;28;20186;-69
2022/11/09 02:59:13;;;;;;;2.80;2.63;;;15.90;99.90;;;;;;5034196;28;20231;-69
2022/11/09 03:01:38;;;;;;;3.57;2.77;;;15.80;99.90;;;;;;5053314;28;20181;-69
2022/11/09 03:04:04;;;;;;;2.43;2.33;;;15.80;99.90;;;;;;5035657;28;20644;-70
2022/11/09 03:06:33;;;;;;;2.40;2.30;;;15.80;99.90;;;;;;5034618;28;20179;-69
2022/11/09 03:09:10;;;;;;;2.47;2.37;;;15.70;99.90;;;;;;5053307;28;20201;-69
2022/11/09 03:11:37;;;;;;;2.40;2.30;;;15.70;99.90;;;;;;5053145;28;20427;-69
2022/11/09 03:14:03;;;;;;;3.10;2.80;;;15.60;99.90;;;;;;5053956;28;20498;-69
2022/11/09 03:16:29;;;;;;;2.40;2.30;;;15.60;99.90;;;;;;5053239;28;20569;-69
2022/11/09 03:18:56;;;;;;;3.13;2.67;;;15.60;99.90;;;;;;5053057;28;20421;-69
2022/11/09 03:21:23;;;;;;;2.63;2.53;;;15.50;99.90;;;;;;5053130;28;20415;-69
2022/11/09 03:23:49;;;;;;;2.40;2.30;;;15.50;99.90;;;;;;5053714;28;20419;-69
2022/11/09 03:26:15;;;;;;;2.30;2.20;;;15.50;99.90;;;;;;5052276;28;20522;-69
2022/11/09 03:28:41;;;;;;;2.87;2.77;;;15.60;99.90;;;;;;5053228;28;20497;-71
2022/11/09 03:31:07;;;;;;;2.70;2.50;;;15.60;99.90;;;;;;5053305;28;20532;-69
2022/11/09 03:33:33;;;;;;;2.53;2.43;;;15.40;99.90;;;;;;5052183;28;20481;-69
2022/11/09 03:36:00;;;;;;;3.17;2.87;;;15.50;99.90;;;;;;5053460;28;20461;-68
2022/11/09 03:38:25;;;;;;;3.87;3.60;;;15.50;99.90;;;;;;5000792;28;20821;-69
2022/11/09 03:40:51;;;;;;;3.13;2.93;;;15.50;99.90;;;;;;5052665;28;20501;-69
2022/11/09 03:43:17;;;;;;;3.73;3.10;;;15.50;99.90;;;;;;5052736;28;20183;-71
2022/11/09 03:45:43;;;;;;;5.47;2.67;;;15.60;99.90;;;;;;5050353;28;20210;-68
2022/11/09 03:48:08;;;;;;;2.97;2.77;;;15.60;99.90;;;;;;5053246;28;20255;-69
2022/11/09 03:50:39;;;;;;;2.63;2.53;;;15.50;99.90;;;;;;5047061;28;20467;-68
2022/11/09 03:53:06;;;;;;;2.40;2.30;;;15.50;99.90;;;;;;5033368;28;20926;-69
2022/11/09 03:55:32;;;;;;;2.93;2.70;;;15.50;99.90;;;;;;5036852;28;20415;-68
2022/11/09 03:57:57;;;;;;;2.67;2.47;;;15.50;99.90;;;;;;5052031;28;20436;-69
2022/11/09 04:00:23;;;;;;;2.80;2.60;;;15.60;99.90;;;;;;5048337;28;20203;-69
2022/11/09 04:02:49;;;;;;;2.57;2.47;;;15.60;99.90;;;;;;5032804;28;20180;-68
2022/11/09 04:05:16;;;;;;;2.63;2.53;;;15.70;99.90;;;;;;5034688;28;20894;-70
2022/11/09 04:07:51;;;;;;;2.50;2.23;;;15.60;99.90;;;;;;5052857;28;20544;-70
2022/11/09 04:10:17;;;;;;;2.70;2.60;;;15.70;99.90;;;;;;5051189;28;20568;-74
2022/11/09 04:12:43;;;;;;;2.87;2.67;;;15.70;99.90;;;;;;5018045;28;20451;-70
2022/11/09 04:15:09;;;;;;;2.80;2.60;;;15.70;99.90;;;;;;5032990;28;20430;-70
2022/11/09 04:17:35;;;;;;;3.50;2.70;;;15.70;99.90;;;;;;5032566;28;20181;-70
2022/11/09 04:20:01;;;;;;;2.87;2.70;;;15.70;99.90;;;;;;5029628;28;20434;-70
2022/11/09 04:22:26;;;;;;;3.07;2.90;;;15.70;99.90;;;;;;5051864;28;20176;-70
2022/11/09 04:24:52;;;;;;;3.97;3.33;;;15.60;99.90;;;;;;5051611;28;20184;-70
2022/11/09 04:27:18;;;;;;;3.53;3.10;;;15.70;99.90;;;;;;5034004;28;20180;-71
2022/11/09 04:29:43;;;;;;;3.00;2.80;;;15.70;99.90;;;;;;5051843;28;20562;-70
2022/11/09 04:32:09;;;;;;;3.00;2.90;;;15.70;99.90;;;;;;5052594;28;20689;-70
2022/11/09 04:34:35;;;;;;;3.30;3.00;;;15.80;99.90;;;;;;5033311;28;20258;-70
2022/11/09 04:37:03;;;;;;;2.60;2.40;;;15.90;99.90;;;;;;5052304;28;20185;-70
2022/11/09 04:39:28;;;;;;;3.60;3.40;;;15.90;99.90;;;;;;5051250;28;20223;-70
2022/11/09 04:41:54;;;;;;;3.40;3.23;;;15.90;99.90;;;;;;5051732;28;20458;-70
2022/11/09 04:44:20;;;;;;;3.00;2.90;;;15.80;99.90;;;;;;5051599;28;20518;-70
2022/11/09 04:46:45;;;;;;;4.33;4.10;;;15.80;99.90;;;;;;5052158;28;20541;-70
2022/11/09 04:49:11;;;;;;;2.70;2.50;;;15.80;99.90;;;;;;5050813;28;20619;-70
2022/11/09 04:51:37;;;;;;;3.03;2.83;;;15.90;99.90;;;;;;5052449;28;20282;-70
2022/11/09 04:54:02;;;;;;;3.20;3.00;;;15.90;99.90;;;;;;5038719;28;20188;-70
2022/11/09 04:56:28;;;;;;;2.60;2.40;;;15.80;99.90;;;;;;5055851;28;20202;-70
2022/11/09 04:58:54;;;;;;;3.47;2.40;;;15.70;99.90;;;;;;5055208;28;20646;-70
2022/11/09 05:01:19;;;;;;;3.20;3.00;;;15.60;99.90;;;;;;5055920;28;20570;-73
2022/11/09 05:03:45;;;;;;;3.83;3.53;;;15.60;99.90;;;;;;5056387;28;20182;-70
2022/11/09 05:08:55;;;;;;;2.03;1.93;;;15.70;99.90;;;;;;5055613;28;20609;-70
2022/11/09 05:11:22;;;;;;;2.80;2.60;;;15.70;99.90;;;;;;5052309;28;20441;-71
2022/11/09 05:13:48;;;;;;;3.47;3.17;;;15.60;99.90;;;;;;5056489;28;20562;-70
2022/11/09 05:16:16;;;;;;;4.43;4.13;;;15.60;99.90;;;;;;5037927;28;20900;-70
2022/11/09 05:18:42;;;;;;;3.70;3.40;;;15.80;99.90;;;;;;5036919;28;20441;-70
2022/11/09 05:21:08;;;;;;;2.97;2.73;;;15.70;99.90;;;;;;5054534;28;20431;-70
2022/11/09 05:26:18;;;;;;;4.07;3.73;;;15.70;99.90;;;;;;5038178;28;20774;-70
2022/11/09 05:28:43;;;;;;;4.93;4.63;;;15.70;99.90;;;;;;5036082;28;20438;-70
2022/11/09 05:31:09;;;;;;;3.90;3.27;;;15.70;99.90;;;;;;5055787;28;20595;-70
2022/11/09 05:33:35;;;;;;;3.40;3.13;;;15.60;99.90;;;;;;5055276;28;20173;-70
2022/11/09 05:36:01;;;;;;;4.77;4.43;;;15.70;99.90;;;;;;5054145;28;20199;-70
2022/11/09 05:38:26;;;;;;;3.80;2.70;;;15.80;99.90;;;;;;5054660;28;20259;-70
2022/11/09 05:40:53;;;;;;;3.60;3.30;;;15.80;99.90;;;;;;5044074;28;20223;-70
2022/11/09 05:43:19;;;;;;;4.47;4.17;;;15.80;99.90;;;;;;5035701;28;20180;-70
2022/11/09 05:45:46;;;;;;;2.47;2.27;;;15.70;99.90;;;;;;5041395;28;20480;-70
2022/11/09 05:48:13;;;;;;;3.67;3.47;;;15.70;99.90;;;;;;5033102;28;20490;-71
2022/11/09 05:50:40;;;;;;;2.83;2.63;;;15.70;99.90;;;;;;5034969;28;20470;-70
2022/11/09 05:53:06;;;;;;;3.90;3.50;;;15.70;99.90;;;;;;5051867;28;20814;-70
2022/11/09 05:55:32;;;;;;;3.57;3.30;;;15.70;99.90;;;;;;5052535;28;20442;-70
2022/11/09 05:57:57;;;;;;;3.43;3.10;;;15.70;99.90;;;;;;5055755;28;20410;-70
2022/11/09 06:00:23;;;;;;;3.00;2.80;;;15.60;99.90;;;;;;5053906;28;20438;-71
2022/11/09 06:02:49;;;;;;;4.20;3.80;;;15.60;99.90;;;;;;5052461;28;20183;-70
2022/11/09 06:05:15;;;;;;;4.37;3.10;;;15.70;99.90;;;;;;5035158;28;20443;-70
2022/11/09 06:07:41;;;;;;;4.73;3.90;;;15.70;99.90;;;;;;5029437;28;20584;-70
2022/11/09 06:10:08;;;;;;;5.40;3.43;;;15.70;99.90;;;;;;5034311;28;20242;-70
2022/11/09 06:12:34;;;;;;;4.00;3.63;;;15.70;99.90;;;;;;5032638;28;20466;-71
2022/11/09 06:14:59;;;;;;;3.97;3.60;;;15.70;99.90;;;;;;5033699;28;20534;-70
2022/11/09 06:17:25;;;;;;;4.03;3.63;;;15.70;99.90;;;;;;5034180;28;20520;-70
2022/11/09 06:19:51;;;;;;;3.50;3.20;;;15.60;99.90;;;;;;5027874;28;20319;-70
2022/11/09 06:22:16;;;;;;;7.10;4.07;;;15.60;99.90;;;;;;5015274;28;20224;-70
2022/11/09 06:24:42;;;;;;;6.07;3.37;;;15.70;99.90;;;;;;5027318;28;20239;-70
2022/11/09 06:27:08;;;;;;;4.77;4.33;;;15.60;99.90;;;;;;5032772;28;20596;-70
2022/11/09 06:29:33;;;;;;;4.17;2.50;;;15.60;99.90;;;;;;5023648;28;20213;-70
2022/11/09 06:31:59;;;;;;;4.37;3.97;;;15.70;99.90;;;;;;5009838;28;20559;-70
2022/11/09 06:34:25;;;;;;;3.20;2.80;;;15.70;99.90;;;;;;5026693;28;20191;-74
2022/11/09 06:36:51;;;;;;;3.07;2.77;;;15.60;99.90;;;;;;5033547;28;20651;-72
2022/11/09 06:39:16;;;;;;;4.30;3.77;;;15.70;99.90;;;;;;5032062;28;20561;-70
2022/11/09 06:41:42;;;;;;;5.03;3.80;;;15.60;99.90;;;;;;5023149;28;20505;-68
2022/11/09 06:44:08;;;;;;;7.07;4.10;;;15.60;99.90;;;;;;5029375;28;20197;-67
2022/11/09 06:46:36;;;;;;;4.23;3.40;;;15.70;99.90;;;;;;5031878;28;20195;-67
2022/11/09 06:49:01;;;;;;;3.33;2.77;;;15.70;99.90;;;;;;5015091;28;20640;-67
2022/11/09 06:51:27;;;;;;;2.60;2.40;;;15.70;99.90;;;;;;5014408;28;20440;-67
2022/11/09 06:53:53;;;;;;;3.63;3.33;;;15.60;99.90;;;;;;5032126;28;20189;-67
2022/11/09 06:56:40;;;;;;;2.80;2.60;;;15.60;99.90;;;;;;5031523;28;20231;-67
2022/11/09 06:59:07;;;;;;;7.23;6.53;;;15.60;99.90;;;;;;5032011;28;20514;-67
2022/11/09 07:01:33;;;;;;;3.30;3.10;;;15.60;99.90;;;;;;5022836;28;20483;-67
2022/11/09 07:03:59;;;;;;;3.70;2.63;;;15.50;99.90;;;;;;5021279;28;20802;-67
2022/11/09 07:06:24;;;;;;;2.60;2.40;;;15.50;99.90;;;;;;5031651;28;20704;-67
2022/11/09 07:08:54;;;;;;;3.40;3.10;;;15.50;99.90;;;;;;5029935;28;20612;-67
2022/11/09 07:11:20;;;;;;;11.93;8.20;;;15.50;99.90;;;;;;5023664;28;20205;-67
2022/11/09 07:13:48;;;;;;;4.37;3.97;;;15.50;99.90;;;;;;5010626;28;20971;-67
2022/11/09 07:16:16;;;;;;;3.87;3.40;;;15.40;99.90;;;;;;5011951;28;20189;-67
2022/11/09 07:18:44;;;;;;;2.73;2.53;;;15.40;99.90;;;;;;5011191;28;20420;-67
2022/11/09 07:21:10;;;;;;;4.23;2.50;;;15.40;99.90;;;;;;5016316;28;20443;-67
2022/11/09 07:23:35;;;;;;;3.80;3.60;;;15.40;99.90;;;;;;5027936;28;20435;-67
2022/11/09 07:26:01;;;;;;;3.37;3.07;;;15.50;99.90;;;;;;5026417;28;20442;-67
2022/11/09 07:28:27;;;;;;;3.97;3.10;;;15.40;99.90;;;;;;5031282;28;20202;-67
2022/11/09 07:30:53;;;;;;;2.83;2.57;;;15.30;99.90;;;;;;5033632;28;20727;-67
2022/11/09 07:33:19;;;;;;;3.80;3.60;;;15.30;99.90;;;;;;5033685;28;20438;-67
2022/11/09 07:35:45;;;;;;;3.17;2.57;;;15.10;99.90;;;;;;5033071;28;20512;-67
2022/11/09 07:38:12;;;;;;;6.20;3.33;;;15.10;99.90;;;;;;5031606;28;20435;-67
2022/11/09 07:40:39;;;;;;;3.87;3.47;;;15.10;99.90;;;;;;5025916;28;20424;-67
2022/11/09 07:43:05;;;;;;;3.00;2.80;;;15.10;99.90;;;;;;5033632;28;20911;-67
2022/11/09 07:45:33;;;;;;;3.77;3.40;;;15.10;99.90;;;;;;5032096;28;20447;-68
2022/11/09 07:48:01;;;;;;;3.60;3.40;;;15.10;99.90;;;;;;5033427;28;20447;-67
2022/11/09 07:50:28;;;;;;;3.50;2.60;;;15.10;99.90;;;;;;5033275;28;20461;-67
2022/11/09 07:52:55;;;;;;;2.80;2.60;;;15.20;99.90;;;;;;5016618;28;20418;-68
2022/11/09 07:55:21;;;;;;;2.83;2.73;;;15.20;99.90;;;;;;5025826;28;20459;-67
2022/11/09 07:57:47;;;;;;;3.13;2.93;;;15.20;99.90;;;;;;5032650;28;20406;-67
2022/11/09 08:00:13;;;;;;;4.10;3.90;;;15.20;99.90;;;;;;5031126;28;20454;-67
2022/11/09 08:02:39;;;;;;;3.40;3.20;;;15.20;99.90;;;;;;5031265;28;20522;-68
2022/11/09 08:05:06;;;;;;;4.20;3.83;;;15.20;99.90;;;;;;5032517;28;20443;-67
2022/11/09 08:07:33;;;;;;;3.90;3.10;;;15.10;99.90;;;;;;5042349;28;20463;-68
2022/11/09 08:09:59;;;;;;;3.40;3.10;;;15.20;99.90;;;;;;5052767;28;20465;-67
2022/11/09 08:12:24;;;;;;;3.70;3.50;;;15.20;99.90;;;;;;5041824;28;20440;-68
2022/11/09 08:14:50;;;;;;;2.40;2.27;;;15.20;99.90;;;;;;5032321;28;20638;-67
2022/11/09 08:17:16;;;;;;;4.10;3.80;;;15.20;99.90;;;;;;5033704;28;20185;-67
2022/11/09 08:19:41;;;;;;;3.50;3.20;;;15.30;99.90;;;;;;5032228;28;20181;-67
2022/11/09 08:22:08;;;;;;;3.00;2.80;;;15.30;99.90;;;;;;5030075;28;20229;-67
2022/11/09 08:24:33;;;;;;;7.00;4.70;;;15.40;99.90;;;;;;5050809;28;20184;-67
2022/11/09 08:26:59;;;;;;;2.60;2.43;;;15.50;99.90;;;;;;5052433;28;20506;-67
2022/11/09 08:29:24;;;;;;;2.77;2.57;;;15.60;99.90;;;;;;5052580;28;20208;-67
2022/11/09 08:31:51;;;;;;;3.40;3.10;;;15.60;99.90;;;;;;5033555;28;20240;-67
2022/11/09 08:34:17;;;;;;;3.10;2.80;;;15.60;99.90;;;;;;5052051;28;20211;-68
2022/11/09 08:36:43;;;;;;;3.50;3.20;;;15.70;99.90;;;;;;5051571;28;20442;-67
2022/11/09 08:39:09;;;;;;;2.90;2.70;;;15.70;99.90;;;;;;5040875;28;20466;-67
2022/11/09 08:41:35;;;;;;;4.93;3.00;;;15.60;99.90;;;;;;5040823;28;20281;-70
2022/11/09 08:44:01;;;;;;;3.67;3.37;;;15.60;99.90;;;;;;5050995;28;20435;-68
2022/11/09 08:46:26;;;;;;;3.47;3.27;;;15.70;99.90;;;;;;5051679;28;20426;-67
2022/11/09 08:48:52;;;;;;;3.40;3.10;;;15.80;99.90;;;;;;5050866;28;20743;-68
2022/11/09 08:51:18;;;;;;;3.47;3.13;;;15.90;99.90;;;;;;5051837;28;20298;-69
2022/11/09 08:53:44;;;;;;;4.37;3.70;;;16.10;99.90;;;;;;5050716;28;20187;-68
2022/11/09 08:56:11;;;;;;;3.90;3.50;;;16.40;99.90;;;;;;5052670;28;20416;-68
2022/11/09 08:58:37;;;;;;;3.70;3.50;;;16.80;99.90;;;;;;5050885;28;20249;-68
2022/11/09 09:01:07;;;;;;;4.30;3.90;;;17.10;99.90;;;;;;5051338;28;20949;-67
2022/11/09 09:03:34;;;;;;;3.37;3.07;;;17.60;99.90;;;;;;5050639;28;20507;-70
2022/11/09 09:06:04;;;;;;;3.10;2.93;;;18.10;99.90;;;;;;5046957;28;20425;-67
2022/11/09 09:08:30;;;;;;;3.10;2.80;;;18.50;99.90;;;;;;5040290;28;20466;-67
2022/11/09 09:10:56;;;;;;;4.80;3.90;;;18.90;99.90;;;;;;5051050;28;20959;-67
2022/11/09 09:13:21;;;;;;;2.93;2.73;;;19.20;99.90;;;;;;5052353;28;20220;-68
2022/11/09 09:15:48;;;;;;;3.07;2.77;;;19.40;99.90;;;;;;5050888;28;20207;-68
2022/11/09 09:18:14;;;;;;;3.20;3.00;;;19.60;99.30;;;;;;5052372;28;20201;-68
2022/11/09 09:20:40;;;;;;;2.83;2.63;;;19.90;98.80;;;;;;5050332;28;20424;-68
2022/11/09 09:23:05;;;;;;;2.50;2.40;;;20.00;97.70;;;;;;5051728;28;20461;-68
2022/11/09 09:25:34;;;;;;;3.03;2.83;;;20.10;97.10;;;;;;5050423;28;20178;-67
2022/11/09 09:28:00;;;;;;;3.20;2.80;;;20.20;96.90;;;;;;5051322;28;20197;-67
2022/11/09 09:30:26;;;;;;;3.93;3.63;;;20.40;96.00;;;;;;5051991;28;20534;-67
2022/11/09 09:32:51;;;;;;;6.50;6.10;;;20.40;95.70;;;;;;5051470;28;20182;-68
2022/11/09 09:35:17;;;;;;;4.40;4.00;;;20.50;95.80;;;;;;5051542;28;20174;-67
2022/11/09 09:37:43;;;;;;;4.43;4.00;;;20.50;95.20;;;;;;5053139;28;20200;-68
2022/11/09 09:40:22;;;;;;;2.73;2.53;;;20.40;95.90;;;;;;5054362;28;20189;-68
2022/11/09 09:42:49;;;;;;;4.00;3.80;;;20.20;95.50;;;;;;5055189;28;20461;-67
2022/11/09 09:45:26;;;;;;;3.87;3.60;;;20.10;95.60;;;;;;5054621;28;20428;-68
2022/11/09 09:48:13;;;;;;;3.90;3.70;;;20.00;96.10;;;;;;5055037;28;20436;-68
2022/11/09 09:50:51;;;;;;;3.93;2.27;;;19.90;96.20;;;;;;5054927;28;20508;-68
2022/11/09 09:53:21;;;;;;;2.70;2.47;;;19.90;96.10;;;;;;5055680;28;20444;-67
2022/11/09 09:55:54;;;;;;;2.80;2.63;;;20.10;95.90;;;;;;5054209;28;20495;-68
2022/11/09 09:58:29;;;;;;;3.30;3.10;;;20.30;95.60;;;;;;5055430;28;20404;-67
2022/11/09 10:01:18;;;;;;;3.17;2.60;;;20.50;95.20;;;;;;5054768;28;20528;-68
2022/11/09 10:03:45;;;;;;;4.97;4.57;;;20.70;94.90;;;;;;5054739;28;20397;-68
2022/11/09 10:06:33;;;;;;;2.80;2.60;;;21.00;94.50;;;;;;5054464;28;20435;-68
2022/11/09 10:09:08;;;;;;;2.97;2.67;;;21.10;93.50;;;;;;5020528;28;20464;-68
2022/11/09 10:12:21;;;;;;;2.40;2.23;;;21.30;94.00;;;;;;5055125;28;20420;-67
2022/11/09 10:15:10;;;;;;;5.23;4.80;;;21.50;93.00;;;;;;4972766;28;20474;-68
2022/11/09 10:18:05;;;;;;;3.27;3.07;;;21.50;92.20;;;;;;5044728;28;20420;-68
2022/11/09 10:20:37;;;;;;;3.17;3.07;;;21.40;92.20;;;;;;5054776;28;20411;-68
2022/11/09 10:23:25;;;;;;;4.77;3.90;;;21.20;92.30;;;;;;5055092;28;20396;-68
2022/11/09 10:25:59;;;;;;;3.27;3.07;;;20.70;93.10;;;;;;5054322;28;20400;-68
2022/11/09 10:28:28;;;;;;;2.77;2.57;;;20.40;93.60;;;;;;5054266;28;20435;-68
2022/11/09 10:30:53;;;;;;;4.33;3.00;;;20.20;93.60;;;;;;5053822;28;20506;-68
2022/11/09 10:33:20;;;;;;;2.80;2.70;;;20.10;93.60;;;;;;5054800;28;20451;-68
2022/11/09 10:35:56;;;;;;;2.80;2.67;;;20.00;94.50;;;;;;5054070;28;20181;-67
2022/11/09 10:38:31;;;;;;;3.50;2.87;;;19.90;94.50;;;;;;5054719;28;20423;-68
2022/11/09 10:41:14;;;;;;;7.53;6.77;;;19.80;94.40;;;;;;5053341;28;20447;-67
2022/11/09 10:43:39;;;;;;;11.57;10.33;;;19.80;94.30;;;;;;5054080;28;20443;-70
2022/11/09 10:46:07;;;;;;;4.80;3.00;;;19.80;94.40;;;;;;5054472;28;20910;-68
2022/11/09 10:48:38;;;;;;;4.10;3.20;;;19.70;94.10;;;;;;5053446;28;20201;-67
2022/11/09 10:51:05;;;;;;;2.50;2.40;;;19.60;94.00;;;;;;5053699;28;20464;-68
2022/11/09 10:53:32;;;;;;;3.40;3.20;;;19.60;94.30;;;;;;5054391;28;20775;-67
2022/11/09 10:56:14;;;;;;;3.40;3.20;;;19.50;94.10;;;;;;5019384;28;20912;-68
2022/11/09 10:58:49;;;;;;;2.80;2.60;;;19.70;93.70;;;;;;5053616;28;20501;-67
2022/11/09 11:01:18;;;;;;;2.67;2.50;;;19.80;92.50;;;;;;5054268;28;20868;-68
2022/11/09 11:03:48;;;;;;;2.80;2.60;;;19.90;91.90;;;;;;5053596;28;20478;-68
2022/11/09 11:06:18;;;;;;;2.90;2.70;;;20.00;91.40;;;;;;5054115;28;20426;-67
2022/11/09 11:09:11;;;;;;;3.47;3.17;;;19.60;90.90;;;;;;5053112;28;20429;-68
2022/11/09 11:11:39;;;;;;;3.00;2.30;;;19.60;91.00;;;;;;5053671;28;20497;-68
2022/11/09 11:14:14;;;;;;;3.07;2.87;;;19.50;90.80;;;;;;5053662;28;20416;-67
2022/11/09 11:16:42;;;;;;;2.57;2.00;;;19.50;90.70;;;;;;5053314;28;20193;-68
2022/11/09 11:19:31;;;;;;;3.10;2.90;;;19.40;90.90;;;;;;5054011;28;20440;-68
2022/11/09 11:22:21;;;;;;;2.43;2.33;;;19.60;90.90;;;;;;5001803;28;20416;-68
2022/11/09 11:24:58;;;;;;;2.47;2.27;;;19.70;90.90;;;;;;5053577;28;20403;-67
2022/11/09 11:27:58;;;;;;;2.17;1.97;;;19.70;89.70;;;;;;5035849;28;20416;-68
2022/11/09 11:30:30;;;;;;;3.80;2.73;;;19.90;88.40;;;;;;5036123;28;20503;-67
2022/11/09 11:32:57;;;;;;;3.73;1.87;;;20.10;90.00;;;;;;5052399;28;20411;-67
2022/11/09 11:35:37;;;;;;;2.23;2.03;;;20.20;86.50;;;;;;5053009;28;20510;-68
2022/11/09 11:38:28;;;;;;;3.53;2.40;;;19.90;86.00;;;;;;5053060;28;20419;-68
2022/11/09 11:41:06;;;;;;;2.60;1.93;;;19.70;86.60;;;;;;5052624;28;20760;-67
2022/11/09 11:43:51;;;;;;;2.33;1.60;;;19.70;85.80;;;;;;5053612;28;20938;-67
2022/11/09 11:46:33;;;;;;;2.90;2.50;;;19.60;84.60;;;;;;5053253;28;20804;-67
2022/11/09 11:49:32;;;;;;;2.60;2.40;;;19.30;82.10;;;;;;5052697;28;20463;-67
2022/11/09 11:52:12;;;;;;;3.77;3.47;;;19.20;84.80;;;;;;5052454;28;20806;-67
2022/11/09 11:54:58;;;;;;;3.77;2.40;;;18.90;84.70;;;;;;5052581;28;20428;-67
2022/11/09 11:57:51;;;;;;;2.60;2.40;;;18.80;85.20;;;;;;5051583;28;20407;-67
2022/11/09 12:00:18;;;;;;;2.87;2.67;;;18.70;86.40;;;;;;5052943;28;20766;-67
2022/11/09 12:02:56;;;;;;;2.30;2.10;;;18.60;84.10;;;;;;5051475;28;20474;-70
2022/11/09 12:05:37;;;;;;;2.80;2.60;;;18.50;85.30;;;;;;5053382;28;20404;-67
2022/11/09 12:08:22;;;;;;;2.30;2.10;;;18.60;86.10;;;;;;5034006;28;20817;-67
2022/11/09 12:10:54;;;;;;;2.63;2.40;;;18.70;86.60;;;;;;5052073;28;20459;-68
2022/11/09 12:13:51;;;;;;;3.17;2.93;;;18.80;87.20;;;;;;5052399;28;20428;-68
2022/11/09 12:16:17;;;;;;;3.10;2.90;;;18.80;87.00;;;;;;5035278;28;20402;-67
2022/11/09 12:19:09;;;;;;;3.17;2.60;;;18.60;86.80;;;;;;5052582;28;20419;-67
2022/11/09 12:22:03;;;;;;;2.67;2.47;;;18.70;88.00;;;;;;5052876;28;20251;-67
2022/11/09 12:25:23;;;;;;;3.10;2.90;;;18.80;87.70;;;;;;5052244;28;20427;-67
2022/11/09 12:27:51;;;;;;;3.20;2.80;;;18.90;86.70;;;;;;4970904;28;20427;-71
2022/11/09 12:30:37;;;;;;;2.80;2.60;;;18.90;86.60;;;;;;5047297;28;20467;-67
2022/11/09 12:33:13;;;;;;;3.00;2.70;;;18.80;86.10;;;;;;5051734;28;20725;-67
2022/11/09 12:35:47;;;;;;;3.60;2.67;;;18.80;88.00;;;;;;5052923;28;20407;-67
2022/11/09 12:38:15;;;;;;;3.33;2.97;;;18.80;87.00;;;;;;5034522;28;20938;-67
2022/11/09 12:41:04;;;;;;;4.10;2.60;;;18.80;86.70;;;;;;5034594;28;20436;-67
2022/11/09 12:43:56;;;;;;;4.60;3.43;;;18.80;86.10;;;;;;5051414;28;20841;-67
2022/11/09 12:46:28;;;;;;;3.10;2.90;;;18.60;86.10;;;;;;5052315;28;20746;-67
2022/11/09 12:48:56;;;;;;;3.60;3.07;;;18.50;85.40;;;;;;5051339;28;20397;-68
2022/11/09 12:51:23;;;;;;;3.13;2.93;;;18.40;86.20;;;;;;5034145;28;20462;-67
2022/11/09 12:53:48;;;;;;;4.97;3.27;;;18.40;87.20;;;;;;5051870;28;20744;-68
2022/11/09 12:56:29;;;;;;;3.50;3.30;;;18.20;86.20;;;;;;5052085;28;20403;-67
2022/11/09 12:59:26;;;;;;;3.70;3.40;;;18.10;87.20;;;;;;5051888;28;20165;-68
2022/11/09 13:01:57;;;;;;;5.23;3.60;;;18.00;86.80;;;;;;5051399;28;20762;-68
2022/11/09 13:04:24;;;;;;;4.43;4.13;;;18.00;87.50;;;;;;5051574;28;20514;-67